createdAt,value
2023-02-16T00:01:28.216Z,66.53
2023-02-16T00:03:57.487Z,53.10
2023-02-16T00:06:26.205Z,58.10
2023-02-16T00:08:55.719Z,54.90
2023-02-16T00:11:47.021Z,98.53
2023-02-16T00:14:15.988Z,67.47
2023-02-16T00:16:45.495Z,63.13
2023-02-16T00:19:22.722Z,80.13
2023-02-16T00:21:52.876Z,129.37
2023-02-16T00:24:22.696Z,81.67
2023-02-16T00:26:50.947Z,77.63
2023-02-16T00:29:23.901Z,86.43
2023-02-16T00:31:54.496Z,92.67
2023-02-16T00:34:34.381Z,114.13
2023-02-16T00:37:04.368Z,80.37
2023-02-16T00:39:32.976Z,96.47
2023-02-16T00:42:03.925Z,93.30
2023-02-16T00:44:35.886Z,96.97
2023-02-16T00:47:20.458Z,87.23
2023-02-16T00:49:49.639Z,84.67
2023-02-16T00:52:32.195Z,74.83
2023-02-16T00:55:01.989Z,75.60
2023-02-16T00:57:34.088Z,71.63
2023-02-16T01:00:06.437Z,95.27
2023-02-16T01:02:36.133Z,72.73
2023-02-16T01:05:04.636Z,71.77
2023-02-16T01:07:50.081Z,77.80
2023-02-16T01:10:36.578Z,70.43
2023-02-16T01:13:04.810Z,64.93
2023-02-16T01:15:34.631Z,64.63
2023-02-16T01:18:04.171Z,73.17
2023-02-16T01:20:35.376Z,62.87
2023-02-16T01:23:04.278Z,63.50
2023-02-16T01:25:33.790Z,50.20
2023-02-16T01:28:02.070Z,57.30
2023-02-16T01:30:30.325Z,64.47
2023-02-16T01:32:58.548Z,69.57
2023-02-16T01:35:34.201Z,59.23
2023-02-16T01:38:02.359Z,69.57
2023-02-16T01:40:39.314Z,68.80
2023-02-16T01:43:19.676Z,53.87
2023-02-16T01:45:52.500Z,55.20
2023-02-16T01:48:25.914Z,64.20
2023-02-16T01:51:00.300Z,58.33
2023-02-16T01:53:34.758Z,54.80
2023-02-16T01:56:07.000Z,51.57
2023-02-16T01:58:44.505Z,57.17
2023-02-16T02:01:38.931Z,49.13
2023-02-16T02:04:38.725Z,57.07
2023-02-16T02:07:09.972Z,56.20
2023-02-16T02:09:44.191Z,47.23
2023-02-16T02:12:24.462Z,54.20
2023-02-16T02:14:52.950Z,51.87
2023-02-16T02:17:22.905Z,50.33
2023-02-16T02:19:58.820Z,48.53
2023-02-16T02:23:14.081Z,50.53
2023-02-16T02:26:24.860Z,49.33
2023-02-16T02:29:02.922Z,51.77
2023-02-16T02:31:41.192Z,52.97
2023-02-16T02:34:18.792Z,52.17
2023-02-16T02:36:52.042Z,46.33
2023-02-16T02:39:31.472Z,48.97
2023-02-16T02:42:10.450Z,48.23
2023-02-16T02:44:51.157Z,42.83
2023-02-16T02:47:19.697Z,46.10
2023-02-16T02:49:52.497Z,52.13
2023-02-16T02:52:21.586Z,41.63
2023-02-16T02:55:20.289Z,47.50
2023-02-16T02:58:08.527Z,51.13
2023-02-16T03:00:43.902Z,48.47
2023-02-16T03:03:17.150Z,54.13
2023-02-16T03:05:49.079Z,48.20
2023-02-16T03:08:21.840Z,47.83
2023-02-16T03:11:09.908Z,45.60
2023-02-16T03:13:40.444Z,51.57
2023-02-16T03:16:14.331Z,56.10
2023-02-16T03:19:02.588Z,51.93
2023-02-16T03:21:48.302Z,56.03
2023-02-16T03:24:40.782Z,74.20
2023-02-16T03:27:27.492Z,74.43
2023-02-16T03:29:58.028Z,71.77
2023-02-16T03:32:28.156Z,72.73
2023-02-16T03:34:56.587Z,61.70
2023-02-16T03:37:25.175Z,54.87
2023-02-16T03:40:11.229Z,56.17
2023-02-16T03:42:39.629Z,56.27
2023-02-16T03:45:09.082Z,54.90
2023-02-16T03:47:38.827Z,59.63
2023-02-16T03:50:08.137Z,49.20
2023-02-16T03:52:36.902Z,45.87
2023-02-16T03:55:05.385Z,50.30
2023-02-16T03:57:33.746Z,51.00
2023-02-16T04:00:02.227Z,47.03
2023-02-16T04:02:30.900Z,48.53
2023-02-16T04:05:00.403Z,49.93
2023-02-16T04:07:30.736Z,50.47
2023-02-16T04:09:59.795Z,47.03
2023-02-16T04:12:38.995Z,43.40
2023-02-16T04:15:09.365Z,42.77
2023-02-16T04:17:37.787Z,45.53
2023-02-16T04:20:09.446Z,46.07
2023-02-16T04:22:37.649Z,39.33
2023-02-16T04:25:06.915Z,53.93
2023-02-16T04:27:35.447Z,47.63
2023-02-16T04:30:04.954Z,53.83
2023-02-16T04:32:33.255Z,47.70
2023-02-16T04:35:01.449Z,45.40
2023-02-16T04:37:31.053Z,45.50
2023-02-16T04:39:59.195Z,41.27
2023-02-16T04:42:27.448Z,46.70
2023-02-16T04:44:55.584Z,49.67
2023-02-16T04:47:25.902Z,42.10
2023-02-16T04:49:54.425Z,44.93
2023-02-16T04:52:22.553Z,44.37
2023-02-16T04:54:52.273Z,51.90
2023-02-16T04:57:21.403Z,49.53
2023-02-16T04:59:49.820Z,48.47
2023-02-16T05:02:18.174Z,40.83
2023-02-16T05:04:46.343Z,48.47
2023-02-16T05:07:14.522Z,39.23
2023-02-16T05:09:42.610Z,38.53
2023-02-16T05:12:30.419Z,37.10
2023-02-16T05:14:58.689Z,40.77
2023-02-16T05:17:28.228Z,36.23
2023-02-16T05:19:58.609Z,40.33
2023-02-16T05:22:28.646Z,41.73
2023-02-16T05:24:56.825Z,43.63
2023-02-16T05:27:27.840Z,43.23
2023-02-16T05:29:56.206Z,41.07
2023-02-16T05:32:24.478Z,38.53
2023-02-16T05:34:52.749Z,36.63
2023-02-16T05:37:23.647Z,35.87
2023-02-16T05:39:53.842Z,44.67
2023-02-16T05:42:21.920Z,46.30
2023-02-16T05:44:51.388Z,43.53
2023-02-16T05:47:19.754Z,43.83
2023-02-16T05:49:47.988Z,44.57
2023-02-16T05:52:16.148Z,43.40
2023-02-16T05:54:44.461Z,46.70
2023-02-16T05:57:12.528Z,36.50
2023-02-16T05:59:40.618Z,34.80
2023-02-16T06:02:10.691Z,42.27
2023-02-16T06:04:38.814Z,42.87
2023-02-16T06:07:06.929Z,52.20
2023-02-16T06:09:35.322Z,39.07
2023-02-16T06:12:03.684Z,44.57
2023-02-16T06:14:31.811Z,40.10
2023-02-16T06:17:01.466Z,47.80
2023-02-16T06:19:31.038Z,40.97
2023-02-16T06:21:59.054Z,40.13
2023-02-16T06:24:27.480Z,44.67
2023-02-16T06:26:55.631Z,44.60
2023-02-16T06:29:23.959Z,33.77
2023-02-16T06:31:52.246Z,41.80
2023-02-16T06:34:20.603Z,42.03
2023-02-16T06:36:50.105Z,36.10
2023-02-16T06:39:18.533Z,43.60
2023-02-16T06:41:46.722Z,40.77
2023-02-16T06:44:17.621Z,42.07
2023-02-16T06:46:47.791Z,39.23
2023-02-16T06:49:19.160Z,48.37
2023-02-16T06:51:50.660Z,40.07
2023-02-16T06:54:20.356Z,42.60
2023-02-16T06:56:48.547Z,37.40
2023-02-16T06:59:16.736Z,44.30
2023-02-16T07:01:45.425Z,48.33
2023-02-16T07:04:14.230Z,41.13
2023-02-16T07:06:42.838Z,42.20
2023-02-16T07:09:13.043Z,42.23
2023-02-16T07:11:41.361Z,38.77
2023-02-16T07:14:09.731Z,46.17
2023-02-16T07:16:38.225Z,40.10
2023-02-16T07:19:07.042Z,40.83
2023-02-16T07:21:35.371Z,41.30
2023-02-16T07:24:03.776Z,36.33
2023-02-16T07:26:33.623Z,39.40
2023-02-16T07:29:01.805Z,39.27
2023-02-16T07:31:30.589Z,40.90
2023-02-16T07:33:59.068Z,38.77
2023-02-16T07:36:27.436Z,54.53
2023-02-16T07:38:55.928Z,85.33
2023-02-16T07:41:24.317Z,66.93
2023-02-16T07:43:53.848Z,50.90
2023-02-16T07:46:22.021Z,28.77
2023-02-16T07:48:50.632Z,34.70
2023-02-16T07:51:23.635Z,28.57
2023-02-16T07:53:52.068Z,26.97
2023-02-16T07:56:21.949Z,25.60
2023-02-16T07:58:52.251Z,28.57
2023-02-16T08:01:22.720Z,25.63
2023-02-16T08:03:51.618Z,27.30
2023-02-16T08:06:20.749Z,29.97
2023-02-16T08:08:49.738Z,29.17
2023-02-16T08:11:20.228Z,25.93
2023-02-16T08:13:48.889Z,30.10
2023-02-16T08:16:21.690Z,30.87
2023-02-16T08:18:52.283Z,31.63
2023-02-16T08:21:21.886Z,26.23
2023-02-16T08:23:54.991Z,32.20
2023-02-16T08:26:24.121Z,29.27
2023-02-16T08:28:53.061Z,28.07
2023-02-16T08:31:23.267Z,25.27
2023-02-16T08:33:54.137Z,32.03
2023-02-16T08:36:24.982Z,30.57
2023-02-16T08:38:53.979Z,30.77
2023-02-16T08:41:26.881Z,34.43
2023-02-16T08:44:02.063Z,29.57
2023-02-16T08:46:30.956Z,29.27
2023-02-16T08:49:01.148Z,26.50
2023-02-16T08:51:30.591Z,30.23
2023-02-16T08:54:00.077Z,28.37
2023-02-16T08:56:29.884Z,25.30
2023-02-16T08:58:58.333Z,32.00
2023-02-16T09:01:27.207Z,24.97
2023-02-16T09:03:57.191Z,30.13
2023-02-16T09:06:27.536Z,28.07
2023-02-16T09:08:57.096Z,24.87
2023-02-16T09:11:26.335Z,25.77
2023-02-16T09:13:54.734Z,28.30
2023-02-16T09:16:23.933Z,26.87
2023-02-16T09:18:53.048Z,31.50
2023-02-16T09:21:22.295Z,24.73
2023-02-16T09:23:52.697Z,23.57
2023-02-16T09:26:21.811Z,23.67
2023-02-16T09:28:50.662Z,24.13
2023-02-16T09:31:23.703Z,22.15
2023-02-16T09:33:52.238Z,20.85
2023-02-16T09:36:20.767Z,23.05
2023-02-16T09:38:49.244Z,19.77
2023-02-16T09:41:32.978Z,18.33
2023-02-16T09:44:02.186Z,16.45
2023-02-16T09:46:32.106Z,19.58
2023-02-16T09:49:02.378Z,20.77
2023-02-16T09:51:35.189Z,16.52
2023-02-16T09:54:09.890Z,18.63
2023-02-16T09:56:42.083Z,18.85
2023-02-16T09:59:14.592Z,20.73
2023-02-16T10:01:46.023Z,19.27
2023-02-16T10:04:26.180Z,19.23
2023-02-16T10:06:59.703Z,21.45
2023-02-16T10:09:29.591Z,19.75
2023-02-16T10:12:03.752Z,19.98
2023-02-16T10:14:34.861Z,18.83
2023-02-16T10:17:08.041Z,21.63
2023-02-16T10:19:41.096Z,18.20
2023-02-16T10:22:17.368Z,18.73
2023-02-16T10:24:51.479Z,19.95
2023-02-16T10:27:23.131Z,16.60
2023-02-16T10:29:51.618Z,17.63
2023-02-16T10:32:29.114Z,18.02
2023-02-16T10:35:01.425Z,17.92
2023-02-16T10:37:42.264Z,20.88
2023-02-16T10:40:23.524Z,17.75
2023-02-16T10:42:56.430Z,17.63
2023-02-16T10:45:27.318Z,18.13
2023-02-16T10:47:56.165Z,18.05
2023-02-16T10:50:27.179Z,18.00
2023-02-16T10:52:58.156Z,16.63
2023-02-16T10:55:26.694Z,18.63
2023-02-16T10:57:58.264Z,19.15
2023-02-16T11:00:31.832Z,14.57
2023-02-16T11:03:04.031Z,19.27
2023-02-16T11:05:34.516Z,21.20
2023-02-16T11:08:03.695Z,18.42
2023-02-16T11:10:40.757Z,14.88
2023-02-16T11:13:19.266Z,15.88
2023-02-16T11:15:52.703Z,16.95
2023-02-16T11:18:27.976Z,14.98
2023-02-16T11:20:57.378Z,15.27
2023-02-16T11:23:27.888Z,16.55
2023-02-16T11:25:58.233Z,15.40
2023-02-16T11:28:33.027Z,15.65
2023-02-16T11:31:23.534Z,16.58
2023-02-16T11:34:19.584Z,15.45
2023-02-16T11:36:49.051Z,14.43
2023-02-16T11:39:19.666Z,16.63
2023-02-16T11:42:00.137Z,14.18
2023-02-16T11:44:33.458Z,14.65
2023-02-16T11:47:04.229Z,14.43
2023-02-16T11:49:39.965Z,13.30
2023-02-16T11:52:23.165Z,14.70
2023-02-16T11:55:07.939Z,13.63
2023-02-16T11:57:39.046Z,13.40
2023-02-16T12:00:18.181Z,12.30
2023-02-16T12:03:03.142Z,17.55
2023-02-16T12:05:37.644Z,13.75
2023-02-16T12:08:17.239Z,12.45
2023-02-16T12:10:50.077Z,15.38
2023-02-16T12:13:22.760Z,16.13
2023-02-16T12:15:57.067Z,16.00
2023-02-16T12:18:29.330Z,12.68
2023-02-16T12:21:01.026Z,12.43
2023-02-16T12:23:35.611Z,16.00
2023-02-16T12:26:11.405Z,13.67
2023-02-16T12:28:42.970Z,11.53
2023-02-16T12:31:22.521Z,12.83
2023-02-16T12:33:55.159Z,12.13
2023-02-16T12:36:34.024Z,12.30
2023-02-16T12:39:08.051Z,11.23
2023-02-16T12:41:44.148Z,10.37
2023-02-16T12:44:16.149Z,11.97
2023-02-16T12:46:48.011Z,13.87
2023-02-16T12:49:18.535Z,13.97
2023-02-16T12:51:50.752Z,14.83
2023-02-16T12:54:23.000Z,13.13
2023-02-16T12:56:54.146Z,13.03
2023-02-16T12:59:24.352Z,11.17
2023-02-16T13:01:56.096Z,12.17
2023-02-16T13:04:28.753Z,11.10
2023-02-16T13:07:00.106Z,14.63
2023-02-16T13:09:36.140Z,13.03
2023-02-16T13:12:08.682Z,11.30
2023-02-16T13:14:40.128Z,12.97
2023-02-16T13:17:12.010Z,13.10
2023-02-16T13:19:40.483Z,11.93
2023-02-16T13:22:25.794Z,14.30
2023-02-16T13:25:02.891Z,11.97
2023-02-16T13:27:36.833Z,11.33
2023-02-16T13:30:10.500Z,13.03
2023-02-16T13:32:45.420Z,11.60
2023-02-16T13:35:38.698Z,12.70
2023-02-16T13:38:19.868Z,12.17
2023-02-16T13:41:09.852Z,13.43
2023-02-16T13:43:38.605Z,12.53
2023-02-16T13:46:08.822Z,12.67
2023-02-16T13:48:42.709Z,11.97
2023-02-16T13:51:13.937Z,10.70
2023-02-16T13:53:43.617Z,14.70
2023-02-16T13:56:17.711Z,11.27
2023-02-16T13:58:46.244Z,9.93
2023-02-16T14:01:35.401Z,11.20
2023-02-16T14:04:06.308Z,10.93
2023-02-16T14:06:39.885Z,12.07
2023-02-16T14:09:33.503Z,10.57
2023-02-16T14:12:16.983Z,11.07
2023-02-16T14:14:50.244Z,11.17
2023-02-16T14:17:25.407Z,10.73
2023-02-16T14:19:56.669Z,10.40
2023-02-16T14:22:26.552Z,8.67
2023-02-16T14:24:56.818Z,10.00
2023-02-16T14:27:43.951Z,9.50
2023-02-16T14:30:20.010Z,7.93
2023-02-16T14:32:49.779Z,9.43
2023-02-16T14:35:21.661Z,10.33
2023-02-16T14:37:54.915Z,8.27
2023-02-16T14:40:24.970Z,9.37
2023-02-16T14:42:55.215Z,8.20
2023-02-16T14:45:48.628Z,11.43
2023-02-16T14:48:24.297Z,8.13
2023-02-16T14:51:03.438Z,10.77
2023-02-16T14:53:56.152Z,13.53
2023-02-16T14:56:45.553Z,9.80
2023-02-16T14:59:18.864Z,11.03
2023-02-16T15:01:48.267Z,9.40
2023-02-16T15:04:29.195Z,11.67
2023-02-16T15:07:00.000Z,9.50
2023-02-16T15:09:31.075Z,10.43
2023-02-16T15:12:25.547Z,10.93
2023-02-16T15:15:02.955Z,11.63
2023-02-16T15:17:48.250Z,9.77
2023-02-16T15:20:21.823Z,10.83
2023-02-16T15:22:53.122Z,10.83
2023-02-16T15:25:26.859Z,10.17
2023-02-16T15:28:01.579Z,11.10
2023-02-16T15:30:31.638Z,12.33
2023-02-16T15:33:01.058Z,15.97
2023-02-16T15:35:31.333Z,12.73
2023-02-16T15:38:08.182Z,12.93
2023-02-16T15:40:36.732Z,10.90
2023-02-16T15:43:10.937Z,8.47
2023-02-16T15:45:39.841Z,9.00
2023-02-16T15:48:23.533Z,11.67
2023-02-16T15:50:53.483Z,12.27
2023-02-16T15:53:29.888Z,10.13
2023-02-16T15:55:58.406Z,9.13
2023-02-16T15:58:27.934Z,11.07
2023-02-16T16:00:56.893Z,9.43
2023-02-16T16:03:25.449Z,10.27
2023-02-16T16:06:00.330Z,9.00
2023-02-16T16:08:30.811Z,10.40
2023-02-16T16:10:59.556Z,11.00
2023-02-16T16:13:29.272Z,9.73
2023-02-16T16:16:01.879Z,14.20
2023-02-16T16:18:39.423Z,12.70
2023-02-16T16:21:14.520Z,10.93
2023-02-16T16:23:54.249Z,9.47
2023-02-16T16:26:23.542Z,9.80
2023-02-16T16:28:52.160Z,10.00
2023-02-16T16:31:33.159Z,11.13
2023-02-16T16:34:04.748Z,13.70
2023-02-16T16:36:33.599Z,11.63
2023-02-16T16:39:21.485Z,11.70
2023-02-16T16:42:08.748Z,10.03
2023-02-16T16:44:38.434Z,14.40
2023-02-16T16:47:24.149Z,15.93
2023-02-16T16:49:56.972Z,13.57
2023-02-16T16:52:36.634Z,10.50
2023-02-16T16:55:22.284Z,12.23
2023-02-16T16:57:51.303Z,14.07
2023-02-16T17:00:20.500Z,11.93
2023-02-16T17:02:48.871Z,15.80
2023-02-16T17:05:17.363Z,13.60
2023-02-16T17:07:49.011Z,14.47
2023-02-16T17:10:20.154Z,15.30
2023-02-16T17:12:49.568Z,15.07
2023-02-16T17:15:24.460Z,13.27
2023-02-16T17:17:52.809Z,16.37
2023-02-16T17:20:22.326Z,20.07
2023-02-16T17:22:50.878Z,16.23
2023-02-16T17:25:20.765Z,16.80
2023-02-16T17:27:49.356Z,23.03
2023-02-16T17:30:17.984Z,36.00
2023-02-16T17:32:47.908Z,40.83
2023-02-16T17:35:16.413Z,35.43
2023-02-16T17:37:44.810Z,46.40
2023-02-16T17:40:17.311Z,32.73
2023-02-16T17:42:47.200Z,26.73
2023-02-16T17:45:17.200Z,24.70
2023-02-16T17:47:46.015Z,21.00
2023-02-16T17:50:16.344Z,17.80
2023-02-16T17:52:45.171Z,14.97
2023-02-16T17:55:14.609Z,15.30
2023-02-16T17:57:42.992Z,13.27
2023-02-16T18:00:17.775Z,15.60
2023-02-16T18:02:46.153Z,13.17
2023-02-16T18:05:14.809Z,14.33
2023-02-16T18:07:43.177Z,14.03
2023-02-16T18:10:17.109Z,13.97
2023-02-16T18:12:45.533Z,14.00
2023-02-16T18:15:15.290Z,13.17
2023-02-16T18:17:43.822Z,14.67
2023-02-16T18:20:16.275Z,20.13
2023-02-16T18:22:44.813Z,16.17
2023-02-16T18:25:13.433Z,16.77
2023-02-16T18:27:44.400Z,14.80
2023-02-16T18:30:14.069Z,16.77
2023-02-16T18:32:45.203Z,19.07
2023-02-16T18:35:14.016Z,14.17
2023-02-16T18:37:43.217Z,16.33
2023-02-16T18:40:12.798Z,15.60
2023-02-16T18:42:41.316Z,23.00
2023-02-16T18:45:10.229Z,15.17
2023-02-16T18:47:39.148Z,17.50
2023-02-16T18:50:09.807Z,17.37
2023-02-16T18:52:38.223Z,18.00
2023-02-16T18:55:07.190Z,16.60
2023-02-16T18:57:37.673Z,16.37
2023-02-16T19:00:09.016Z,16.43
2023-02-16T19:02:37.908Z,15.40
2023-02-16T19:05:07.009Z,16.93
2023-02-16T19:07:37.253Z,16.30
2023-02-16T19:10:05.992Z,16.10
2023-02-16T19:12:34.468Z,18.30
2023-02-16T19:15:02.836Z,13.40
2023-02-16T19:17:31.153Z,20.20
2023-02-16T19:19:59.660Z,19.00
2023-02-16T19:22:28.040Z,18.20
2023-02-16T19:24:57.838Z,17.00
2023-02-16T19:27:26.482Z,16.67
2023-02-16T19:29:55.093Z,16.80
2023-02-16T19:32:23.454Z,18.47
2023-02-16T19:34:51.944Z,19.77
2023-02-16T19:37:20.323Z,19.57
2023-02-16T19:39:48.715Z,19.70
2023-02-16T19:42:18.611Z,19.30
2023-02-16T19:44:46.968Z,18.90
2023-02-16T19:47:15.397Z,17.67
2023-02-16T19:49:45.584Z,20.03
2023-02-16T19:52:14.191Z,19.43
2023-02-16T19:54:42.626Z,20.77
2023-02-16T19:57:10.964Z,16.90
2023-02-16T19:59:40.665Z,18.33
2023-02-16T20:02:09.039Z,22.60
2023-02-16T20:04:37.456Z,18.47
2023-02-16T20:07:06.940Z,19.47
2023-02-16T20:09:37.319Z,17.63
2023-02-16T20:12:05.959Z,20.20
2023-02-16T20:14:34.413Z,17.93
2023-02-16T20:17:04.270Z,18.20
2023-02-16T20:19:32.634Z,17.93
2023-02-16T20:22:00.993Z,23.90
2023-02-16T20:24:29.403Z,18.97
2023-02-16T20:26:57.759Z,24.87
2023-02-16T20:29:26.222Z,20.67
2023-02-16T20:31:55.996Z,21.80
2023-02-16T20:34:27.489Z,16.47
2023-02-16T20:36:56.268Z,22.27
2023-02-16T20:39:25.047Z,18.37
2023-02-16T20:41:53.562Z,18.60
2023-02-16T20:44:22.588Z,22.53
2023-02-16T20:46:52.001Z,24.00
2023-02-16T20:49:20.711Z,21.10
2023-02-16T20:51:50.602Z,20.23
2023-02-16T20:54:18.962Z,19.37
2023-02-16T20:56:47.697Z,22.80
2023-02-16T20:59:17.666Z,21.70
2023-02-16T21:01:47.278Z,22.93
2023-02-16T21:04:16.922Z,22.63
2023-02-16T21:06:45.788Z,23.20
2023-02-16T21:09:16.079Z,19.10
2023-02-16T21:11:44.534Z,18.57
2023-02-16T21:14:14.280Z,18.70
2023-02-16T21:16:42.902Z,22.23
2023-02-16T21:19:22.534Z,19.83
2023-02-16T21:21:51.803Z,18.60
2023-02-16T21:24:42.176Z,20.83
2023-02-16T21:27:12.148Z,22.67
2023-02-16T21:29:40.557Z,23.33
2023-02-16T21:32:08.990Z,20.20
2023-02-16T21:34:37.394Z,20.43
2023-02-16T21:37:06.189Z,22.80
2023-02-16T21:39:52.272Z,19.40
2023-02-16T21:42:22.170Z,20.20
2023-02-16T21:45:11.286Z,21.03
2023-02-16T21:47:57.455Z,22.17
2023-02-16T21:50:25.982Z,28.77
2023-02-16T21:52:54.608Z,22.00
2023-02-16T21:55:40.464Z,19.83
2023-02-16T21:58:10.832Z,23.93
2023-02-16T22:00:39.775Z,24.37
2023-02-16T22:03:08.981Z,25.00
2023-02-16T22:05:37.664Z,26.63
2023-02-16T22:08:06.664Z,20.30
2023-02-16T22:10:35.985Z,19.07
2023-02-16T22:13:05.233Z,21.53
2023-02-16T22:15:39.266Z,18.70
2023-02-16T22:18:08.246Z,20.17
2023-02-16T22:20:38.193Z,17.73
2023-02-16T22:23:06.903Z,24.47
2023-02-16T22:25:35.338Z,19.60
2023-02-16T22:28:03.786Z,16.90
2023-02-16T22:30:32.275Z,18.43
2023-02-16T22:33:02.265Z,17.70
2023-02-16T22:35:30.813Z,17.93
2023-02-16T22:37:59.703Z,23.13
2023-02-16T22:40:28.448Z,18.53
2023-02-16T22:42:57.037Z,21.00
2023-02-16T22:45:26.228Z,23.73
2023-02-16T22:47:54.609Z,20.27
2023-02-16T22:50:24.712Z,18.53
2023-02-16T22:52:54.621Z,21.40
2023-02-16T22:55:23.551Z,18.57
2023-02-16T22:57:52.193Z,19.23
2023-02-16T23:00:21.312Z,24.57
2023-02-16T23:02:49.850Z,19.37
2023-02-16T23:05:18.461Z,22.17
2023-02-16T23:07:48.351Z,21.10
2023-02-16T23:10:16.845Z,23.60
2023-02-16T23:12:45.205Z,21.47
2023-02-16T23:15:13.938Z,19.13
2023-02-16T23:17:42.319Z,16.67
2023-02-16T23:20:11.024Z,18.87
2023-02-16T23:22:39.827Z,15.67
2023-02-16T23:25:27.255Z,14.13
2023-02-16T23:27:55.666Z,14.73
2023-02-16T23:30:24.215Z,19.93
2023-02-16T23:32:52.937Z,17.17
2023-02-16T23:35:21.324Z,14.70
2023-02-16T23:37:50.862Z,15.03
2023-02-16T23:40:20.849Z,15.77
2023-02-16T23:42:49.386Z,17.97
2023-02-16T23:45:20.589Z,15.80
2023-02-16T23:47:49.608Z,14.13
2023-02-16T23:50:17.994Z,16.17
2023-02-16T23:52:46.368Z,15.83
2023-02-16T23:55:15.459Z,14.00
2023-02-16T23:57:45.258Z,18.60
